sensor_id;sensor_type;location;lat;lon;timestamp;P1;durP1;ratioP1;P2;durP2;ratioP2
17153;SDS011;8692;52.164;7.558;2023-04-23T00:01:04;22.17;;;19.93;;
17153;SDS011;8692;52.164;7.558;2023-04-23T00:03:35;23.10;;;20.80;;
17153;SDS011;8692;52.164;7.558;2023-04-23T00:06:06;22.47;;;20.20;;
17153;SDS011;8692;52.164;7.558;2023-04-23T00:08:37;23.73;;;21.27;;
17153;SDS011;8692;52.164;7.558;2023-04-23T00:11:06;21.90;;;19.60;;
17153;SDS011;8692;52.164;7.558;2023-04-23T00:13:35;22.47;;;20.17;;
17153;SDS011;8692;52.164;7.558;2023-04-23T00:16:06;22.43;;;20.23;;
17153;SDS011;8692;52.164;7.558;2023-04-23T00:18:38;23.07;;;20.77;;
17153;SDS011;8692;52.164;7.558;2023-04-23T00:21:09;20.83;;;18.80;;
17153;SDS011;8692;52.164;7.558;2023-04-23T00:23:39;21.57;;;19.47;;
17153;SDS011;8692;52.164;7.558;2023-04-23T00:26:07;23.00;;;20.60;;
17153;SDS011;8692;52.164;7.558;2023-04-23T00:28:38;23.40;;;20.60;;
17153;SDS011;8692;52.164;7.558;2023-04-23T00:31:07;20.70;;;18.70;;
17153;SDS011;8692;52.164;7.558;2023-04-23T00:33:36;22.23;;;20.03;;
17153;SDS011;8692;52.164;7.558;2023-04-23T00:36:04;24.60;;;22.13;;
17153;SDS011;8692;52.164;7.558;2023-04-23T00:38:33;26.37;;;23.53;;
17153;SDS011;8692;52.164;7.558;2023-04-23T00:41:01;24.47;;;21.87;;
17153;SDS011;8692;52.164;7.558;2023-04-23T00:43:29;24.47;;;22.03;;
17153;SDS011;8692;52.164;7.558;2023-04-23T00:46:01;23.90;;;21.43;;
17153;SDS011;8692;52.164;7.558;2023-04-23T00:48:32;23.70;;;21.30;;
17153;SDS011;8692;52.164;7.558;2023-04-23T00:51:04;25.30;;;22.70;;
17153;SDS011;8692;52.164;7.558;2023-04-23T00:53:33;28.47;;;24.87;;
17153;SDS011;8692;52.164;7.558;2023-04-23T00:56:01;28.10;;;25.13;;
17153;SDS011;8692;52.164;7.558;2023-04-23T00:58:32;28.73;;;24.90;;
17153;SDS011;8692;52.164;7.558;2023-04-23T01:01:02;27.13;;;24.33;;
17153;SDS011;8692;52.164;7.558;2023-04-23T01:03:35;29.87;;;25.43;;
17153;SDS011;8692;52.164;7.558;2023-04-23T01:06:07;27.17;;;24.33;;
17153;SDS011;8692;52.164;7.558;2023-04-23T01:08:37;28.80;;;25.60;;
17153;SDS011;8692;52.164;7.558;2023-04-23T01:11:07;29.57;;;26.40;;
17153;SDS011;8692;52.164;7.558;2023-04-23T01:13:35;25.37;;;22.80;;
17153;SDS011;8692;52.164;7.558;2023-04-23T01:16:04;27.67;;;24.80;;
17153;SDS011;8692;52.164;7.558;2023-04-23T01:18:35;28.67;;;24.90;;
17153;SDS011;8692;52.164;7.558;2023-04-23T01:21:06;30.90;;;27.60;;
17153;SDS011;8692;52.164;7.558;2023-04-23T01:23:39;29.67;;;26.47;;
17153;SDS011;8692;52.164;7.558;2023-04-23T01:26:07;31.17;;;27.80;;
17153;SDS011;8692;52.164;7.558;2023-04-23T01:28:36;30.93;;;27.50;;
17153;SDS011;8692;52.164;7.558;2023-04-23T01:31:08;31.13;;;27.83;;
17153;SDS011;8692;52.164;7.558;2023-04-23T01:33:36;28.87;;;25.67;;
17153;SDS011;8692;52.164;7.558;2023-04-23T01:36:06;28.43;;;25.50;;
17153;SDS011;8692;52.164;7.558;2023-04-23T01:38:37;27.63;;;24.73;;
17153;SDS011;8692;52.164;7.558;2023-04-23T01:41:09;30.90;;;27.63;;
17153;SDS011;8692;52.164;7.558;2023-04-23T01:43:40;28.47;;;25.50;;
17153;SDS011;8692;52.164;7.558;2023-04-23T01:46:09;31.13;;;27.83;;
17153;SDS011;8692;52.164;7.558;2023-04-23T01:48:37;30.47;;;26.43;;
17153;SDS011;8692;52.164;7.558;2023-04-23T01:51:08;28.37;;;25.33;;
17153;SDS011;8692;52.164;7.558;2023-04-23T01:53:36;28.77;;;25.83;;
17153;SDS011;8692;52.164;7.558;2023-04-23T01:56:04;29.27;;;26.23;;
17153;SDS011;8692;52.164;7.558;2023-04-23T01:58:38;28.80;;;25.80;;
17153;SDS011;8692;52.164;7.558;2023-04-23T02:01:06;31.83;;;28.53;;
17153;SDS011;8692;52.164;7.558;2023-04-23T02:03:37;32.53;;;29.03;;
17153;SDS011;8692;52.164;7.558;2023-04-23T02:06:06;31.47;;;28.10;;
17153;SDS011;8692;52.164;7.558;2023-04-23T02:08:35;33.20;;;28.23;;
17153;SDS011;8692;52.164;7.558;2023-04-23T02:11:04;28.17;;;25.17;;
17153;SDS011;8692;52.164;7.558;2023-04-23T02:13:33;28.30;;;25.20;;
17153;SDS011;8692;52.164;7.558;2023-04-23T02:16:03;29.80;;;25.43;;
17153;SDS011;8692;52.164;7.558;2023-04-23T02:18:31;26.07;;;23.33;;
17153;SDS011;8692;52.164;7.558;2023-04-23T02:21:02;26.50;;;23.70;;
17153;SDS011;8692;52.164;7.558;2023-04-23T02:23:30;32.57;;;28.60;;
17153;SDS011;8692;52.164;7.558;2023-04-23T02:26:01;29.27;;;26.10;;
17153;SDS011;8692;52.164;7.558;2023-04-23T02:28:29;33.10;;;29.50;;
17153;SDS011;8692;52.164;7.558;2023-04-23T02:30:57;33.57;;;29.90;;
17153;SDS011;8692;52.164;7.558;2023-04-23T02:33:26;34.07;;;30.37;;
17153;SDS011;8692;52.164;7.558;2023-04-23T02:35:55;37.20;;;30.73;;
17153;SDS011;8692;52.164;7.558;2023-04-23T02:38:25;34.43;;;30.63;;
17153;SDS011;8692;52.164;7.558;2023-04-23T02:40:56;31.50;;;28.20;;
17153;SDS011;8692;52.164;7.558;2023-04-23T02:43:24;31.30;;;27.90;;
17153;SDS011;8692;52.164;7.558;2023-04-23T02:45:52;31.13;;;26.10;;
17153;SDS011;8692;52.164;7.558;2023-04-23T02:48:23;34.70;;;30.90;;
17153;SDS011;8692;52.164;7.558;2023-04-23T02:50:56;30.30;;;26.40;;
17153;SDS011;8692;52.164;7.558;2023-04-23T02:53:24;32.20;;;28.63;;
17153;SDS011;8692;52.164;7.558;2023-04-23T02:55:55;33.07;;;29.50;;
17153;SDS011;8692;52.164;7.558;2023-04-23T02:58:23;32.47;;;28.83;;
17153;SDS011;8692;52.164;7.558;2023-04-23T03:00:54;32.13;;;28.73;;
17153;SDS011;8692;52.164;7.558;2023-04-23T03:03:23;32.17;;;27.70;;
17153;SDS011;8692;52.164;7.558;2023-04-23T03:05:56;35.23;;;30.50;;
17153;SDS011;8692;52.164;7.558;2023-04-23T03:08:25;35.10;;;29.37;;
17153;SDS011;8692;52.164;7.558;2023-04-23T03:10:55;36.10;;;31.43;;
17153;SDS011;8692;52.164;7.558;2023-04-23T03:13:23;31.43;;;28.07;;
17153;SDS011;8692;52.164;7.558;2023-04-23T03:15:55;31.13;;;27.73;;
17153;SDS011;8692;52.164;7.558;2023-04-23T03:18:24;32.43;;;28.43;;
17153;SDS011;8692;52.164;7.558;2023-04-23T03:20:53;36.67;;;30.07;;
17153;SDS011;8692;52.164;7.558;2023-04-23T03:23:23;33.93;;;30.23;;
17153;SDS011;8692;52.164;7.558;2023-04-23T03:25:51;31.17;;;27.70;;
17153;SDS011;8692;52.164;7.558;2023-04-23T03:28:19;33.20;;;29.03;;
17153;SDS011;8692;52.164;7.558;2023-04-23T03:30:47;37.27;;;30.60;;
17153;SDS011;8692;52.164;7.558;2023-04-23T03:33:15;31.40;;;27.87;;
17153;SDS011;8692;52.164;7.558;2023-04-23T03:35:44;37.30;;;30.07;;
17153;SDS011;8692;52.164;7.558;2023-04-23T03:38:16;33.30;;;28.80;;
17153;SDS011;8692;52.164;7.558;2023-04-23T03:40:49;29.87;;;25.83;;
17153;SDS011;8692;52.164;7.558;2023-04-23T03:43:17;28.50;;;25.33;;
17153;SDS011;8692;52.164;7.558;2023-04-23T03:46:06;30.90;;;27.43;;
17153;SDS011;8692;52.164;7.558;2023-04-23T03:48:38;32.53;;;27.30;;
17153;SDS011;8692;52.164;7.558;2023-04-23T03:51:21;35.50;;;28.93;;
17153;SDS011;8692;52.164;7.558;2023-04-23T03:53:49;32.93;;;28.77;;
17153;SDS011;8692;52.164;7.558;2023-04-23T03:56:36;36.50;;;29.60;;
17153;SDS011;8692;52.164;7.558;2023-04-23T03:59:23;31.30;;;26.63;;
17153;SDS011;8692;52.164;7.558;2023-04-23T04:01:54;34.57;;;28.07;;
17153;SDS011;8692;52.164;7.558;2023-04-23T04:04:25;34.30;;;28.93;;
17153;SDS011;8692;52.164;7.558;2023-04-23T04:06:56;36.50;;;30.23;;
17153;SDS011;8692;52.164;7.558;2023-04-23T04:09:26;35.47;;;29.33;;
17153;SDS011;8692;52.164;7.558;2023-04-23T04:12:00;34.20;;;28.20;;
17153;SDS011;8692;52.164;7.558;2023-04-23T04:14:29;35.83;;;30.20;;
17153;SDS011;8692;52.164;7.558;2023-04-23T04:16:58;37.77;;;30.80;;
17153;SDS011;8692;52.164;7.558;2023-04-23T04:19:26;40.30;;;31.70;;
17153;SDS011;8692;52.164;7.558;2023-04-23T04:21:57;33.50;;;28.40;;
17153;SDS011;8692;52.164;7.558;2023-04-23T04:24:25;38.23;;;31.90;;
17153;SDS011;8692;52.164;7.558;2023-04-23T04:26:56;39.37;;;32.43;;
17153;SDS011;8692;52.164;7.558;2023-04-23T04:29:26;39.57;;;32.33;;
17153;SDS011;8692;52.164;7.558;2023-04-23T04:31:55;35.90;;;30.87;;
17153;SDS011;8692;52.164;7.558;2023-04-23T04:34:23;37.37;;;29.13;;
17153;SDS011;8692;52.164;7.558;2023-04-23T04:36:54;34.63;;;28.80;;
17153;SDS011;8692;52.164;7.558;2023-04-23T04:39:22;34.67;;;29.13;;
17153;SDS011;8692;52.164;7.558;2023-04-23T04:41:53;35.73;;;29.27;;
17153;SDS011;8692;52.164;7.558;2023-04-23T04:44:23;34.67;;;27.10;;
17153;SDS011;8692;52.164;7.558;2023-04-23T04:46:54;37.53;;;28.70;;
17153;SDS011;8692;52.164;7.558;2023-04-23T04:49:23;38.73;;;29.73;;
17153;SDS011;8692;52.164;7.558;2023-04-23T04:51:53;37.47;;;31.23;;
17153;SDS011;8692;52.164;7.558;2023-04-23T04:54:24;43.67;;;33.63;;
17153;SDS011;8692;52.164;7.558;2023-04-23T04:56:52;37.50;;;30.67;;
17153;SDS011;8692;52.164;7.558;2023-04-23T04:59:20;34.73;;;28.70;;
17153;SDS011;8692;52.164;7.558;2023-04-23T05:01:48;33.87;;;28.40;;
17153;SDS011;8692;52.164;7.558;2023-04-23T05:04:20;35.60;;;29.47;;
17153;SDS011;8692;52.164;7.558;2023-04-23T05:06:51;37.63;;;31.30;;
17153;SDS011;8692;52.164;7.558;2023-04-23T05:09:19;34.10;;;27.40;;
17153;SDS011;8692;52.164;7.558;2023-04-23T05:11:49;39.33;;;30.20;;
17153;SDS011;8692;52.164;7.558;2023-04-23T05:14:18;36.67;;;29.97;;
17153;SDS011;8692;52.164;7.558;2023-04-23T05:16:46;33.93;;;27.93;;
17153;SDS011;8692;52.164;7.558;2023-04-23T05:19:14;32.77;;;28.03;;
17153;SDS011;8692;52.164;7.558;2023-04-23T05:21:44;35.17;;;28.47;;
17153;SDS011;8692;52.164;7.558;2023-04-23T05:24:15;36.17;;;28.50;;
17153;SDS011;8692;52.164;7.558;2023-04-23T05:26:43;36.40;;;28.87;;
17153;SDS011;8692;52.164;7.558;2023-04-23T05:29:13;40.07;;;32.83;;
17153;SDS011;8692;52.164;7.558;2023-04-23T05:31:44;36.70;;;29.97;;
17153;SDS011;8692;52.164;7.558;2023-04-23T05:34:13;35.60;;;28.77;;
17153;SDS011;8692;52.164;7.558;2023-04-23T05:36:41;36.43;;;28.60;;
17153;SDS011;8692;52.164;7.558;2023-04-23T05:39:13;36.63;;;28.20;;
17153;SDS011;8692;52.164;7.558;2023-04-23T05:41:41;41.20;;;31.77;;
17153;SDS011;8692;52.164;7.558;2023-04-23T05:44:09;36.57;;;29.90;;
17153;SDS011;8692;52.164;7.558;2023-04-23T05:46:40;37.63;;;29.50;;
17153;SDS011;8692;52.164;7.558;2023-04-23T05:49:08;36.97;;;29.27;;
17153;SDS011;8692;52.164;7.558;2023-04-23T05:51:38;36.13;;;29.37;;
17153;SDS011;8692;52.164;7.558;2023-04-23T05:54:07;33.77;;;27.10;;
17153;SDS011;8692;52.164;7.558;2023-04-23T05:56:36;37.37;;;29.10;;
17153;SDS011;8692;52.164;7.558;2023-04-23T05:59:04;36.23;;;27.87;;
17153;SDS011;8692;52.164;7.558;2023-04-23T06:01:33;37.93;;;29.13;;
17153;SDS011;8692;52.164;7.558;2023-04-23T06:04:01;41.57;;;32.53;;
17153;SDS011;8692;52.164;7.558;2023-04-23T06:06:30;45.20;;;33.43;;
17153;SDS011;8692;52.164;7.558;2023-04-23T06:08:58;45.47;;;34.23;;
17153;SDS011;8692;52.164;7.558;2023-04-23T06:11:26;38.47;;;31.03;;
17153;SDS011;8692;52.164;7.558;2023-04-23T06:13:56;42.43;;;31.97;;
17153;SDS011;8692;52.164;7.558;2023-04-23T06:16:24;42.73;;;32.77;;
17153;SDS011;8692;52.164;7.558;2023-04-23T06:18:54;40.63;;;32.57;;
17153;SDS011;8692;52.164;7.558;2023-04-23T06:21:23;43.83;;;32.13;;
17153;SDS011;8692;52.164;7.558;2023-04-23T06:23:52;44.80;;;33.47;;
17153;SDS011;8692;52.164;7.558;2023-04-23T06:26:21;43.67;;;33.07;;
17153;SDS011;8692;52.164;7.558;2023-04-23T06:28:57;43.37;;;33.93;;
17153;SDS011;8692;52.164;7.558;2023-04-23T06:31:29;43.73;;;32.80;;
17153;SDS011;8692;52.164;7.558;2023-04-23T06:33:59;42.70;;;32.33;;
17153;SDS011;8692;52.164;7.558;2023-04-23T06:36:29;44.07;;;33.00;;
17153;SDS011;8692;52.164;7.558;2023-04-23T06:38:58;42.47;;;33.60;;
17153;SDS011;8692;52.164;7.558;2023-04-23T06:41:28;41.80;;;32.07;;
17153;SDS011;8692;52.164;7.558;2023-04-23T06:44:13;41.63;;;31.80;;
17153;SDS011;8692;52.164;7.558;2023-04-23T06:46:50;41.30;;;32.90;;
17153;SDS011;8692;52.164;7.558;2023-04-23T06:49:20;42.77;;;32.57;;
17153;SDS011;8692;52.164;7.558;2023-04-23T06:51:51;40.47;;;32.30;;
17153;SDS011;8692;52.164;7.558;2023-04-23T06:54:22;37.00;;;31.03;;
17153;SDS011;8692;52.164;7.558;2023-04-23T06:56:52;36.23;;;29.30;;
17153;SDS011;8692;52.164;7.558;2023-04-23T06:59:23;37.43;;;29.07;;
17153;SDS011;8692;52.164;7.558;2023-04-23T07:01:56;33.97;;;27.80;;
17153;SDS011;8692;52.164;7.558;2023-04-23T07:04:25;35.00;;;28.27;;
17153;SDS011;8692;52.164;7.558;2023-04-23T07:06:55;34.37;;;27.13;;
17153;SDS011;8692;52.164;7.558;2023-04-23T07:09:25;33.90;;;28.10;;
17153;SDS011;8692;52.164;7.558;2023-04-23T07:11:54;35.10;;;29.43;;
17153;SDS011;8692;52.164;7.558;2023-04-23T07:14:24;37.30;;;29.53;;
17153;SDS011;8692;52.164;7.558;2023-04-23T07:16:55;32.33;;;26.43;;
17153;SDS011;8692;52.164;7.558;2023-04-23T07:19:25;29.57;;;24.37;;
17153;SDS011;8692;52.164;7.558;2023-04-23T07:21:55;28.57;;;23.97;;
17153;SDS011;8692;52.164;7.558;2023-04-23T07:24:24;27.33;;;24.30;;
17153;SDS011;8692;52.164;7.558;2023-04-23T07:26:52;28.30;;;23.50;;
17153;SDS011;8692;52.164;7.558;2023-04-23T07:29:20;25.73;;;22.67;;
17153;SDS011;8692;52.164;7.558;2023-04-23T07:31:52;25.40;;;20.70;;
17153;SDS011;8692;52.164;7.558;2023-04-23T07:34:23;22.33;;;19.93;;
17153;SDS011;8692;52.164;7.558;2023-04-23T07:36:52;24.37;;;21.20;;
17153;SDS011;8692;52.164;7.558;2023-04-23T07:39:24;22.40;;;20.03;;
17153;SDS011;8692;52.164;7.558;2023-04-23T07:41:54;22.33;;;19.87;;
17153;SDS011;8692;52.164;7.558;2023-04-23T07:44:26;21.60;;;18.97;;
17153;SDS011;8692;52.164;7.558;2023-04-23T07:46:56;20.83;;;18.60;;
17153;SDS011;8692;52.164;7.558;2023-04-23T07:49:24;21.03;;;18.20;;
17153;SDS011;8692;52.164;7.558;2023-04-23T07:51:52;19.30;;;17.30;;
17153;SDS011;8692;52.164;7.558;2023-04-23T07:54:20;19.10;;;17.13;;
17153;SDS011;8692;52.164;7.558;2023-04-23T07:56:53;18.80;;;15.80;;
17153;SDS011;8692;52.164;7.558;2023-04-23T07:59:22;18.37;;;16.47;;
17153;SDS011;8692;52.164;7.558;2023-04-23T08:01:50;18.83;;;16.23;;
17153;SDS011;8692;52.164;7.558;2023-04-23T08:04:22;18.20;;;16.10;;
17153;SDS011;8692;52.164;7.558;2023-04-23T08:06:53;16.87;;;14.53;;
17153;SDS011;8692;52.164;7.558;2023-04-23T08:09:24;17.37;;;15.57;;
17153;SDS011;8692;52.164;7.558;2023-04-23T08:11:52;17.07;;;15.00;;
17153;SDS011;8692;52.164;7.558;2023-04-23T08:14:21;16.17;;;14.57;;
17153;SDS011;8692;52.164;7.558;2023-04-23T08:16:49;16.43;;;14.63;;
17153;SDS011;8692;52.164;7.558;2023-04-23T08:19:17;15.63;;;14.10;;
17153;SDS011;8692;52.164;7.558;2023-04-23T08:21:47;15.47;;;13.87;;
17153;SDS011;8692;52.164;7.558;2023-04-23T08:24:15;15.70;;;13.47;;
17153;SDS011;8692;52.164;7.558;2023-04-23T08:26:44;13.80;;;12.30;;
17153;SDS011;8692;52.164;7.558;2023-04-23T08:29:16;15.17;;;13.57;;
17153;SDS011;8692;52.164;7.558;2023-04-23T08:31:44;14.93;;;13.53;;
17153;SDS011;8692;52.164;7.558;2023-04-23T08:34:12;13.00;;;11.70;;
17153;SDS011;8692;52.164;7.558;2023-04-23T08:36:43;16.47;;;12.40;;
17153;SDS011;8692;52.164;7.558;2023-04-23T08:39:15;13.37;;;12.07;;
17153;SDS011;8692;52.164;7.558;2023-04-23T08:41:43;12.50;;;11.23;;
17153;SDS011;8692;52.164;7.558;2023-04-23T08:44:16;11.73;;;10.53;;
17153;SDS011;8692;52.164;7.558;2023-04-23T08:46:45;13.57;;;12.17;;
17153;SDS011;8692;52.164;7.558;2023-04-23T08:49:16;12.83;;;11.53;;
17153;SDS011;8692;52.164;7.558;2023-04-23T08:51:47;13.00;;;11.60;;
17153;SDS011;8692;52.164;7.558;2023-04-23T08:54:23;14.23;;;12.80;;
17153;SDS011;8692;52.164;7.558;2023-04-23T08:56:54;19.73;;;12.63;;
17153;SDS011;8692;52.164;7.558;2023-04-23T08:59:24;12.30;;;11.00;;
17153;SDS011;8692;52.164;7.558;2023-04-23T09:01:52;15.70;;;10.80;;
17153;SDS011;8692;52.164;7.558;2023-04-23T09:04:22;11.83;;;10.63;;
17153;SDS011;8692;52.164;7.558;2023-04-23T09:06:54;11.93;;;9.60;;
17153;SDS011;8692;52.164;7.558;2023-04-23T09:09:24;10.47;;;9.07;;
17153;SDS011;8692;52.164;7.558;2023-04-23T09:11:56;10.10;;;8.97;;
17153;SDS011;8692;52.164;7.558;2023-04-23T09:14:25;12.17;;;9.20;;
17153;SDS011;8692;52.164;7.558;2023-04-23T09:16:55;10.20;;;9.27;;
17153;SDS011;8692;52.164;7.558;2023-04-23T09:19:24;11.40;;;9.37;;
17153;SDS011;8692;52.164;7.558;2023-04-23T09:21:54;13.20;;;8.57;;
17153;SDS011;8692;52.164;7.558;2023-04-23T09:24:24;9.47;;;7.47;;
17153;SDS011;8692;52.164;7.558;2023-04-23T09:26:52;10.70;;;8.33;;
17153;SDS011;8692;52.164;7.558;2023-04-23T09:29:22;9.70;;;8.13;;
17153;SDS011;8692;52.164;7.558;2023-04-23T09:31:51;9.83;;;8.50;;
17153;SDS011;8692;52.164;7.558;2023-04-23T09:34:24;8.93;;;8.00;;
17153;SDS011;8692;52.164;7.558;2023-04-23T09:36:53;11.03;;;8.00;;
17153;SDS011;8692;52.164;7.558;2023-04-23T09:39:25;8.67;;;7.73;;
17153;SDS011;8692;52.164;7.558;2023-04-23T09:41:55;9.43;;;8.03;;
17153;SDS011;8692;52.164;7.558;2023-04-23T09:44:30;10.23;;;7.40;;
17153;SDS011;8692;52.164;7.558;2023-04-23T09:47:04;9.73;;;7.23;;
17153;SDS011;8692;52.164;7.558;2023-04-23T09:49:43;7.43;;;6.20;;
17153;SDS011;8692;52.164;7.558;2023-04-23T09:52:15;7.47;;;5.90;;
17153;SDS011;8692;52.164;7.558;2023-04-23T09:54:45;7.83;;;5.53;;
17153;SDS011;8692;52.164;7.558;2023-04-23T09:57:13;7.83;;;6.30;;
17153;SDS011;8692;52.164;7.558;2023-04-23T09:59:42;5.87;;;5.30;;
17153;SDS011;8692;52.164;7.558;2023-04-23T10:02:16;7.60;;;6.17;;
17153;SDS011;8692;52.164;7.558;2023-04-23T10:04:49;6.83;;;6.20;;
17153;SDS011;8692;52.164;7.558;2023-04-23T10:07:34;6.40;;;5.80;;
17153;SDS011;8692;52.164;7.558;2023-04-23T10:10:08;7.33;;;5.73;;
17153;SDS011;8692;52.164;7.558;2023-04-23T10:12:39;8.10;;;5.87;;
17153;SDS011;8692;52.164;7.558;2023-04-23T10:15:20;9.90;;;6.90;;
17153;SDS011;8692;52.164;7.558;2023-04-23T10:17:51;7.87;;;5.57;;
17153;SDS011;8692;52.164;7.558;2023-04-23T10:20:21;10.40;;;5.53;;
17153;SDS011;8692;52.164;7.558;2023-04-23T10:22:50;9.20;;;5.80;;
17153;SDS011;8692;52.164;7.558;2023-04-23T10:25:23;9.13;;;5.87;;
17153;SDS011;8692;52.164;7.558;2023-04-23T10:27:52;7.20;;;6.07;;
17153;SDS011;8692;52.164;7.558;2023-04-23T10:30:23;7.23;;;5.67;;
17153;SDS011;8692;52.164;7.558;2023-04-23T10:33:10;6.03;;;5.20;;
17153;SDS011;8692;52.164;7.558;2023-04-23T10:35:57;5.33;;;4.63;;
17153;SDS011;8692;52.164;7.558;2023-04-23T10:47:44;5.87;;;4.40;;
17153;SDS011;8692;52.164;7.558;2023-04-23T10:50:20;4.10;;;3.73;;
17153;SDS011;8692;52.164;7.558;2023-04-23T10:52:52;6.93;;;4.17;;
17153;SDS011;8692;52.164;7.558;2023-04-23T10:55:23;5.70;;;4.53;;
17153;SDS011;8692;52.164;7.558;2023-04-23T10:57:57;4.57;;;4.17;;
17153;SDS011;8692;52.164;7.558;2023-04-23T11:00:28;6.07;;;4.23;;
17153;SDS011;8692;52.164;7.558;2023-04-23T11:03:25;6.70;;;4.57;;
17153;SDS011;8692;52.164;7.558;2023-04-23T11:06:00;4.57;;;3.70;;
17153;SDS011;8692;52.164;7.558;2023-04-23T11:08:28;7.57;;;3.30;;
17153;SDS011;8692;52.164;7.558;2023-04-23T11:10:58;6.47;;;3.50;;
17153;SDS011;8692;52.164;7.558;2023-04-23T11:13:29;4.70;;;3.27;;
17153;SDS011;8692;52.164;7.558;2023-04-23T11:18:56;4.00;;;3.20;;
17153;SDS011;8692;52.164;7.558;2023-04-23T11:24:27;2.40;;;2.20;;
17153;SDS011;8692;52.164;7.558;2023-04-23T11:27:11;5.63;;;3.53;;
17153;SDS011;8692;52.164;7.558;2023-04-23T11:29:42;6.83;;;3.03;;
17153;SDS011;8692;52.164;7.558;2023-04-23T11:32:12;4.03;;;2.50;;
17153;SDS011;8692;52.164;7.558;2023-04-23T11:34:42;4.33;;;2.30;;
17153;SDS011;8692;52.164;7.558;2023-04-23T11:37:12;4.33;;;2.60;;
17153;SDS011;8692;52.164;7.558;2023-04-23T11:39:44;4.33;;;2.60;;
17153;SDS011;8692;52.164;7.558;2023-04-23T11:42:15;4.20;;;2.30;;
17153;SDS011;8692;52.164;7.558;2023-04-23T11:44:46;3.90;;;2.60;;
17153;SDS011;8692;52.164;7.558;2023-04-23T11:47:15;4.40;;;2.50;;
17153;SDS011;8692;52.164;7.558;2023-04-23T11:49:44;4.67;;;2.40;;
17153;SDS011;8692;52.164;7.558;2023-04-23T11:52:31;5.57;;;2.47;;
17153;SDS011;8692;52.164;7.558;2023-04-23T11:55:01;2.33;;;2.10;;
17153;SDS011;8692;52.164;7.558;2023-04-23T11:57:33;6.00;;;2.47;;
17153;SDS011;8692;52.164;7.558;2023-04-23T12:00:14;4.33;;;2.70;;
17153;SDS011;8692;52.164;7.558;2023-04-23T12:02:52;3.40;;;2.43;;
17153;SDS011;8692;52.164;7.558;2023-04-23T12:05:26;4.83;;;2.53;;
17153;SDS011;8692;52.164;7.558;2023-04-23T12:08:05;2.30;;;2.07;;
17153;SDS011;8692;52.164;7.558;2023-04-23T12:10:40;8.10;;;2.57;;
17153;SDS011;8692;52.164;7.558;2023-04-23T12:13:12;3.13;;;1.97;;
17153;SDS011;8692;52.164;7.558;2023-04-23T12:15:47;4.20;;;2.20;;
17153;SDS011;8692;52.164;7.558;2023-04-23T12:18:16;2.67;;;2.03;;
17153;SDS011;8692;52.164;7.558;2023-04-23T12:20:45;5.90;;;2.43;;
17153;SDS011;8692;52.164;7.558;2023-04-23T12:23:13;3.70;;;2.40;;
17153;SDS011;8692;52.164;7.558;2023-04-23T12:25:41;3.10;;;1.87;;
17153;SDS011;8692;52.164;7.558;2023-04-23T12:28:10;5.37;;;2.17;;
17153;SDS011;8692;52.164;7.558;2023-04-23T12:30:41;2.90;;;2.17;;
17153;SDS011;8692;52.164;7.558;2023-04-23T12:33:11;5.53;;;2.03;;
17153;SDS011;8692;52.164;7.558;2023-04-23T12:35:43;5.17;;;2.60;;
17153;SDS011;8692;52.164;7.558;2023-04-23T12:38:22;4.93;;;2.23;;
17153;SDS011;8692;52.164;7.558;2023-04-23T12:40:51;6.07;;;2.63;;
17153;SDS011;8692;52.164;7.558;2023-04-23T12:43:21;4.73;;;2.80;;
17153;SDS011;8692;52.164;7.558;2023-04-23T12:45:49;4.10;;;2.77;;
17153;SDS011;8692;52.164;7.558;2023-04-23T12:48:19;4.90;;;2.77;;
17153;SDS011;8692;52.164;7.558;2023-04-23T12:50:47;8.07;;;3.53;;
17153;SDS011;8692;52.164;7.558;2023-04-23T12:53:16;4.70;;;2.43;;
17153;SDS011;8692;52.164;7.558;2023-04-23T12:55:45;4.33;;;2.97;;
17153;SDS011;8692;52.164;7.558;2023-04-23T12:58:13;4.23;;;3.07;;
17153;SDS011;8692;52.164;7.558;2023-04-23T13:00:41;4.87;;;2.67;;
17153;SDS011;8692;52.164;7.558;2023-04-23T13:03:10;4.07;;;2.90;;
17153;SDS011;8692;52.164;7.558;2023-04-23T13:05:44;1.87;;;1.70;;
17153;SDS011;8692;52.164;7.558;2023-04-23T13:08:15;3.63;;;2.20;;
17153;SDS011;8692;52.164;7.558;2023-04-23T13:10:44;3.40;;;2.17;;
17153;SDS011;8692;52.164;7.558;2023-04-23T13:13:14;4.30;;;3.23;;
17153;SDS011;8692;52.164;7.558;2023-04-23T13:15:44;4.53;;;3.00;;
17153;SDS011;8692;52.164;7.558;2023-04-23T13:18:15;4.07;;;2.67;;
17153;SDS011;8692;52.164;7.558;2023-04-23T13:20:45;4.77;;;3.30;;
17153;SDS011;8692;52.164;7.558;2023-04-23T13:23:13;4.87;;;3.03;;
17153;SDS011;8692;52.164;7.558;2023-04-23T13:25:44;4.70;;;2.60;;
17153;SDS011;8692;52.164;7.558;2023-04-23T13:28:14;3.57;;;2.00;;
17153;SDS011;8692;52.164;7.558;2023-04-23T13:30:42;2.67;;;2.00;;
17153;SDS011;8692;52.164;7.558;2023-04-23T13:33:11;3.13;;;1.93;;
17153;SDS011;8692;52.164;7.558;2023-04-23T13:35:39;4.13;;;1.67;;
17153;SDS011;8692;52.164;7.558;2023-04-23T13:38:11;5.07;;;2.00;;
17153;SDS011;8692;52.164;7.558;2023-04-23T13:40:39;3.97;;;1.70;;
17153;SDS011;8692;52.164;7.558;2023-04-23T13:43:07;4.17;;;1.20;;
17153;SDS011;8692;52.164;7.558;2023-04-23T13:45:35;1.77;;;1.40;;
17153;SDS011;8692;52.164;7.558;2023-04-23T13:48:04;2.97;;;1.37;;
17153;SDS011;8692;52.164;7.558;2023-04-23T13:50:35;2.00;;;1.40;;
17153;SDS011;8692;52.164;7.558;2023-04-23T13:53:04;5.93;;;1.67;;
17153;SDS011;8692;52.164;7.558;2023-04-23T13:55:33;1.60;;;1.23;;
17153;SDS011;8692;52.164;7.558;2023-04-23T13:58:04;1.57;;;1.13;;
17153;SDS011;8692;52.164;7.558;2023-04-23T14:00:33;1.10;;;1.00;;
17153;SDS011;8692;52.164;7.558;2023-04-23T14:03:01;1.40;;;1.00;;
17153;SDS011;8692;52.164;7.558;2023-04-23T14:05:32;2.63;;;1.10;;
17153;SDS011;8692;52.164;7.558;2023-04-23T14:08:02;1.87;;;1.43;;
17153;SDS011;8692;52.164;7.558;2023-04-23T14:10:31;1.47;;;0.80;;
17153;SDS011;8692;52.164;7.558;2023-04-23T14:13:03;1.50;;;0.70;;
17153;SDS011;8692;52.164;7.558;2023-04-23T14:15:34;2.73;;;1.00;;
17153;SDS011;8692;52.164;7.558;2023-04-23T14:18:02;1.97;;;0.87;;
17153;SDS011;8692;52.164;7.558;2023-04-23T14:20:33;2.13;;;0.90;;
17153;SDS011;8692;52.164;7.558;2023-04-23T14:23:02;1.97;;;0.90;;
17153;SDS011;8692;52.164;7.558;2023-04-23T14:25:40;1.47;;;0.80;;
17153;SDS011;8692;52.164;7.558;2023-04-23T14:28:22;4.23;;;0.93;;
17153;SDS011;8692;52.164;7.558;2023-04-23T14:31:00;1.20;;;0.70;;
17153;SDS011;8692;52.164;7.558;2023-04-23T14:33:28;1.27;;;0.60;;
17153;SDS011;8692;52.164;7.558;2023-04-23T14:35:57;1.73;;;0.83;;
17153;SDS011;8692;52.164;7.558;2023-04-23T14:38:25;1.50;;;0.90;;
17153;SDS011;8692;52.164;7.558;2023-04-23T14:40:53;2.07;;;1.00;;
17153;SDS011;8692;52.164;7.558;2023-04-23T14:43:25;1.57;;;0.90;;
17153;SDS011;8692;52.164;7.558;2023-04-23T14:45:54;1.80;;;0.87;;
17153;SDS011;8692;52.164;7.558;2023-04-23T14:48:22;1.27;;;0.83;;
17153;SDS011;8692;52.164;7.558;2023-04-23T14:50:50;1.40;;;0.83;;
17153;SDS011;8692;52.164;7.558;2023-04-23T14:53:21;2.80;;;1.03;;
17153;SDS011;8692;52.164;7.558;2023-04-23T14:55:49;2.77;;;1.00;;
17153;SDS011;8692;52.164;7.558;2023-04-23T14:58:17;1.93;;;1.00;;
17153;SDS011;8692;52.164;7.558;2023-04-23T15:00:46;2.17;;;1.00;;
17153;SDS011;8692;52.164;7.558;2023-04-23T15:03:16;1.83;;;1.20;;
17153;SDS011;8692;52.164;7.558;2023-04-23T15:05:46;1.37;;;1.17;;
17153;SDS011;8692;52.164;7.558;2023-04-23T15:08:18;1.60;;;1.00;;
17153;SDS011;8692;52.164;7.558;2023-04-23T15:10:49;2.70;;;1.10;;
17153;SDS011;8692;52.164;7.558;2023-04-23T15:13:29;1.07;;;0.87;;
17153;SDS011;8692;52.164;7.558;2023-04-23T15:16:18;2.83;;;1.23;;
17153;SDS011;8692;52.164;7.558;2023-04-23T15:19:12;3.70;;;1.13;;
17153;SDS011;8692;52.164;7.558;2023-04-23T15:21:40;2.73;;;1.23;;